Oxdrift, Canada
Current Conditions -  °F | °C
As of 2:24 PM on Monday 24 Nov 2014 (Local Time) from CYHD Reporting Station
Light Snow Light Snow  
Wind Chill: -17°   Ceiling: 1700
Heat Index: -9°   Visibility: 9mi
Dew Point: -13°   Wind: 15mph
Humidity: 73%   Direction: 330°NNW
Pressure: 29.63"   Gusts: 21mph
Location:  49.82°N, 92.98°W
Report Text: CYHD 242024Z AUTO 33013G18KT 310V020 9SM -SN BKN017 M09/M13 A2963 RMK SLP062
Loading
Personal Weather Stations






























Interactive Weather Map New forecast layout! Learn more

10-Day Weather Forecast

Advertisements
Track Severe Weather on mobile